< < Back
Terminal Aerodrome Forecast


Current Version              Previous Versions:   1  2  3  4  5  6  7  8  9  

Terminal Aerodrome Forecast

108
FTUS42 KTAE 190500
TAFABY
TAF
KABY 190540Z 1906/2006 00000KT P6SM BKN110
     FM191500 04004KT P6SM BKN040 OVC100
     FM192000 32005KT 5SM -RA OVC040
     FM200200 08003KT P6SM SCT050 OVC120=



Latest METAR

681
SAUS70 KWBC 200900
MTRABY
METAR KABY 200853Z 00000KT 10SM OVC038 10/07 A3014 RMK AO2 SLP205 60000
T01000067 56010


USA.gov is the U.S. government's official web portal to all federal, state and local government web resources and services.